createdAt,value
2022-07-29T00:00:52.612Z,14.78
2022-07-29T00:03:24.208Z,14.84
2022-07-29T00:05:55.084Z,14.72
2022-07-29T00:08:23.829Z,14.45
2022-07-29T00:10:54.137Z,14.72
2022-07-29T00:13:32.257Z,14.49
2022-07-29T00:16:04.565Z,14.60
2022-07-29T00:18:38.449Z,14.56
2022-07-29T00:21:08.775Z,14.13
2022-07-29T00:23:37.443Z,14.35
2022-07-29T00:26:06.150Z,14.43
2022-07-29T00:28:35.811Z,14.22
2022-07-29T00:31:06.075Z,14.31
2022-07-29T00:33:34.812Z,14.02
2022-07-29T00:36:02.406Z,14.20
2022-07-29T00:38:32.753Z,13.71
2022-07-29T00:41:01.525Z,14.04
2022-07-29T00:43:30.238Z,14.14
2022-07-29T00:45:59.858Z,14.06
2022-07-29T00:48:28.646Z,13.66
2022-07-29T00:50:57.950Z,13.86
2022-07-29T00:53:29.286Z,14.00
2022-07-29T00:55:59.916Z,13.97
2022-07-29T00:58:30.444Z,13.65
2022-07-29T01:01:01.088Z,13.92
2022-07-29T01:03:29.975Z,13.91
2022-07-29T01:05:58.979Z,13.87
2022-07-29T01:08:27.662Z,13.87
2022-07-29T01:10:56.856Z,13.85
2022-07-29T01:13:29.210Z,13.82
2022-07-29T01:16:00.886Z,13.51
2022-07-29T01:18:34.083Z,13.75
2022-07-29T01:21:30.392Z,13.57
2022-07-29T01:24:14.031Z,13.65
2022-07-29T01:27:23.517Z,13.57
2022-07-29T01:29:55.002Z,13.54
2022-07-29T01:32:29.494Z,13.49
2022-07-29T01:35:02.500Z,13.42
2022-07-29T01:37:37.537Z,13.37
2022-07-29T01:40:14.319Z,13.26
2022-07-29T01:42:46.026Z,13.33
2022-07-29T01:45:18.478Z,13.34
2022-07-29T01:47:52.529Z,13.28
2022-07-29T01:50:26.635Z,13.26
2022-07-29T01:52:58.865Z,13.14
2022-07-29T01:55:32.233Z,13.01
2022-07-29T01:58:02.811Z,13.10
2022-07-29T02:01:21.608Z,13.06
2022-07-29T02:03:52.264Z,12.79
2022-07-29T02:06:25.129Z,13.02
2022-07-29T02:08:57.347Z,13.16
2022-07-29T02:11:26.345Z,13.35
2022-07-29T02:13:56.876Z,13.91
2022-07-29T02:16:27.176Z,13.80
2022-07-29T02:18:58.254Z,13.84
2022-07-29T02:21:27.841Z,14.48
2022-07-29T02:23:58.939Z,14.87
2022-07-29T02:26:28.696Z,14.85
2022-07-29T02:28:59.081Z,15.11
2022-07-29T02:31:33.563Z,15.41
2022-07-29T02:34:05.104Z,15.60
2022-07-29T02:36:34.415Z,15.61
2022-07-29T02:39:05.556Z,15.74
2022-07-29T02:41:39.925Z,15.95
2022-07-29T02:44:13.142Z,16.08
2022-07-29T02:47:15.168Z,15.81
2022-07-29T02:50:00.537Z,15.51
2022-07-29T02:52:34.862Z,15.13
2022-07-29T02:55:07.183Z,14.84
2022-07-29T02:57:54.690Z,14.49
2022-07-29T03:00:26.465Z,14.41
2022-07-29T03:02:59.005Z,14.47
2022-07-29T03:05:31.442Z,14.56
2022-07-29T03:08:04.368Z,14.56
2022-07-29T03:10:33.302Z,14.61
2022-07-29T03:13:02.780Z,14.51
2022-07-29T03:15:32.075Z,14.06
2022-07-29T03:18:01.178Z,14.35
2022-07-29T03:20:31.221Z,14.33
2022-07-29T03:23:03.821Z,14.34
2022-07-29T03:25:33.010Z,14.39
2022-07-29T03:28:01.800Z,14.25
2022-07-29T03:30:31.844Z,14.46
2022-07-29T03:33:03.217Z,14.50
2022-07-29T03:35:44.196Z,14.47
2022-07-29T03:38:12.837Z,14.59
2022-07-29T03:40:47.609Z,14.63
2022-07-29T03:43:20.948Z,14.68
2022-07-29T03:45:53.670Z,14.47
2022-07-29T03:48:23.759Z,14.80
2022-07-29T03:50:55.378Z,14.85
2022-07-29T03:53:24.241Z,14.79
2022-07-29T03:55:57.492Z,14.65
2022-07-29T03:58:27.279Z,14.90
2022-07-29T04:00:58.340Z,15.01
2022-07-29T04:03:27.168Z,15.26
2022-07-29T04:06:08.655Z,15.37
2022-07-29T04:08:37.433Z,15.51
2022-07-29T04:11:07.152Z,15.66
2022-07-29T04:13:35.972Z,15.75
2022-07-29T04:16:07.297Z,15.78
2022-07-29T04:18:36.038Z,15.56
2022-07-29T04:21:06.973Z,15.45
2022-07-29T04:23:35.667Z,15.60
2022-07-29T04:26:23.225Z,15.50
2022-07-29T04:28:51.936Z,15.55
2022-07-29T04:31:25.724Z,15.81
2022-07-29T04:33:54.897Z,15.85
2022-07-29T04:36:29.401Z,15.80
2022-07-29T04:38:58.760Z,15.97
2022-07-29T04:41:33.432Z,15.97
2022-07-29T04:44:06.847Z,16.12
2022-07-29T04:47:06.654Z,16.22
2022-07-29T04:49:35.354Z,16.25
2022-07-29T04:52:06.291Z,15.93
2022-07-29T04:54:38.112Z,16.20
2022-07-29T04:57:06.725Z,16.18
2022-07-29T04:59:35.431Z,16.04
2022-07-29T05:02:04.221Z,16.22
2022-07-29T05:04:32.893Z,16.26
2022-07-29T05:07:01.590Z,16.04
2022-07-29T05:09:33.409Z,16.23
2022-07-29T05:12:03.160Z,16.46
2022-07-29T05:14:37.547Z,16.47
2022-07-29T05:17:06.539Z,16.55
2022-07-29T05:19:40.771Z,16.24
2022-07-29T05:22:09.441Z,16.59
2022-07-29T05:24:39.622Z,16.67
2022-07-29T05:27:08.349Z,16.78
2022-07-29T05:29:42.716Z,16.60
2022-07-29T05:32:16.971Z,16.60
2022-07-29T05:34:50.095Z,17.00
2022-07-29T05:37:21.060Z,17.00
2022-07-29T05:39:56.655Z,16.74
2022-07-29T05:42:28.106Z,17.02
2022-07-29T05:44:56.794Z,17.12
2022-07-29T05:47:25.581Z,16.95
2022-07-29T05:49:55.085Z,17.28
2022-07-29T05:52:25.857Z,16.98
2022-07-29T05:54:55.867Z,17.24
2022-07-29T05:57:26.311Z,16.89
2022-07-29T05:59:55.201Z,17.33
2022-07-29T06:05:17.630Z,17.12
2022-07-29T06:07:50.637Z,17.42
2022-07-29T06:10:27.023Z,17.70
2022-07-29T06:12:56.114Z,17.82
2022-07-29T06:15:24.865Z,17.87
2022-07-29T06:17:59.009Z,17.86
2022-07-29T06:20:34.148Z,17.92
2022-07-29T06:23:05.609Z,18.12
2022-07-29T06:25:37.763Z,18.18
2022-07-29T06:28:06.694Z,18.15
2022-07-29T06:30:35.490Z,18.12
2022-07-29T06:33:04.406Z,18.26
2022-07-29T06:35:41.177Z,18.26
2022-07-29T06:38:31.685Z,18.32
2022-07-29T06:41:04.159Z,18.37
2022-07-29T06:43:35.232Z,18.48
2022-07-29T06:46:06.069Z,18.50
2022-07-29T06:48:35.221Z,18.50
2022-07-29T06:51:07.774Z,18.59
2022-07-29T06:53:38.811Z,18.53
2022-07-29T06:56:28.066Z,18.63
2022-07-29T06:58:56.665Z,18.78
2022-07-29T07:01:31.414Z,18.81
2022-07-29T07:04:00.103Z,18.94
2022-07-29T07:06:29.153Z,18.83
2022-07-29T07:08:57.823Z,19.15
2022-07-29T07:11:52.651Z,19.38
2022-07-29T07:14:24.621Z,19.48
2022-07-29T07:17:01.432Z,19.33
2022-07-29T07:19:34.377Z,19.27
2022-07-29T07:22:02.960Z,19.13
2022-07-29T07:24:37.121Z,19.13
2022-07-29T07:27:07.348Z,19.09
2022-07-29T07:29:44.457Z,19.25
2022-07-29T07:32:14.429Z,19.32
2022-07-29T07:34:46.368Z,19.22
2022-07-29T07:37:15.692Z,19.37
2022-07-29T07:39:47.967Z,19.24
2022-07-29T07:42:20.553Z,19.63
2022-07-29T07:45:12.099Z,19.77
2022-07-29T07:47:38.813Z,19.86
2022-07-29T07:50:09.360Z,19.78
2022-07-29T07:52:48.514Z,20.00
2022-07-29T07:55:17.299Z,20.12
2022-07-29T07:57:48.830Z,20.16
2022-07-29T08:00:27.039Z,20.12
2022-07-29T08:02:55.960Z,19.96
2022-07-29T08:05:24.611Z,19.54
2022-07-29T08:07:53.294Z,20.09
2022-07-29T08:10:47.362Z,20.18
2022-07-29T08:13:17.631Z,20.88
2022-07-29T08:15:46.950Z,21.20
2022-07-29T08:18:16.858Z,21.10
2022-07-29T08:21:09.826Z,20.98
2022-07-29T08:23:47.100Z,20.90
2022-07-29T08:26:17.789Z,21.07
2022-07-29T08:28:50.621Z,21.01
2022-07-29T08:31:24.896Z,21.16
2022-07-29T08:33:57.441Z,21.15
2022-07-29T08:36:29.832Z,21.57
2022-07-29T08:39:00.613Z,21.27
2022-07-29T08:41:29.616Z,21.26
2022-07-29T08:43:59.796Z,21.41
2022-07-29T08:46:28.809Z,21.43
2022-07-29T08:48:59.322Z,21.14
2022-07-29T08:51:30.256Z,21.19
2022-07-29T08:54:00.776Z,20.60
2022-07-29T08:56:29.970Z,20.80
2022-07-29T08:59:01.090Z,20.96
2022-07-29T09:01:42.668Z,21.14
2022-07-29T09:04:16.316Z,21.70
2022-07-29T09:06:48.553Z,21.47
2022-07-29T09:09:17.340Z,21.33
2022-07-29T09:11:48.359Z,21.08
2022-07-29T09:15:08.464Z,21.28
2022-07-29T09:17:47.399Z,20.69
2022-07-29T09:20:55.239Z,21.25
2022-07-29T09:23:24.989Z,21.23
2022-07-29T09:25:53.664Z,21.02
2022-07-29T09:28:24.938Z,21.30
2022-07-29T09:30:54.403Z,21.33
2022-07-29T09:33:25.328Z,21.46
2022-07-29T09:36:02.530Z,21.17
2022-07-29T09:38:33.078Z,21.14
2022-07-29T09:41:05.702Z,21.18
2022-07-29T09:43:38.084Z,21.31
2022-07-29T09:46:13.882Z,21.44
2022-07-29T09:48:44.017Z,21.34
2022-07-29T09:51:38.345Z,21.70
2022-07-29T09:54:26.815Z,21.88
2022-07-29T09:56:56.341Z,21.96
2022-07-29T09:59:58.377Z,22.08
2022-07-29T10:02:31.621Z,21.73
2022-07-29T10:05:08.569Z,21.69
2022-07-29T10:07:53.625Z,21.78
2022-07-29T10:10:30.385Z,21.65
2022-07-29T10:13:04.582Z,21.73
2022-07-29T10:15:42.506Z,21.63
2022-07-29T10:18:11.906Z,21.58
2022-07-29T10:21:06.399Z,21.56
2022-07-29T10:23:46.193Z,21.55
2022-07-29T10:26:18.487Z,21.62
2022-07-29T10:28:48.221Z,21.70
2022-07-29T10:31:25.336Z,21.61
2022-07-29T10:34:02.402Z,21.62
2022-07-29T10:36:46.739Z,21.30
2022-07-29T10:39:55.500Z,21.29
2022-07-29T10:45:23.670Z,21.50
2022-07-29T10:48:05.630Z,21.23
2022-07-29T10:50:57.968Z,21.68
2022-07-29T10:53:51.906Z,21.91
2022-07-29T10:56:34.462Z,22.02
2022-07-29T10:59:53.030Z,22.09
2022-07-29T11:02:50.603Z,22.18
2022-07-29T11:05:20.589Z,22.23
2022-07-29T11:08:27.784Z,22.22
2022-07-29T11:11:39.813Z,22.19
2022-07-29T11:17:14.322Z,22.07
2022-07-29T11:20:31.307Z,22.17
2022-07-29T11:23:01.238Z,22.33
2022-07-29T11:25:42.851Z,22.53
2022-07-29T11:28:25.392Z,22.22
2022-07-29T11:30:56.714Z,22.11
2022-07-29T11:33:54.125Z,21.99
2022-07-29T11:36:28.271Z,22.01
2022-07-29T11:39:53.482Z,22.04
2022-07-29T11:42:42.107Z,22.16
2022-07-29T11:45:43.984Z,22.16
2022-07-29T11:48:31.740Z,22.13
2022-07-29T11:51:04.416Z,22.00
2022-07-29T11:53:36.868Z,21.95
2022-07-29T11:56:06.789Z,21.99
2022-07-29T11:58:36.161Z,21.89
2022-07-29T12:01:07.440Z,21.54
2022-07-29T12:03:44.836Z,22.02
2022-07-29T12:06:22.607Z,21.96
2022-07-29T12:08:51.474Z,21.79
2022-07-29T12:11:23.390Z,21.75
2022-07-29T12:13:54.508Z,21.83
2022-07-29T12:16:26.048Z,21.47
2022-07-29T12:19:02.267Z,21.85
2022-07-29T12:21:31.839Z,21.92
2022-07-29T12:24:50.274Z,22.21
2022-07-29T12:27:29.528Z,22.19
2022-07-29T12:30:04.615Z,22.31
2022-07-29T12:32:35.979Z,22.30
2022-07-29T12:35:08.905Z,22.62
2022-07-29T12:37:40.905Z,22.50
2022-07-29T12:40:13.774Z,22.88
2022-07-29T12:42:42.574Z,22.95
2022-07-29T12:45:17.943Z,22.54
2022-07-29T12:47:55.987Z,22.83
2022-07-29T12:50:26.621Z,22.78
2022-07-29T12:52:56.076Z,22.65
2022-07-29T12:55:52.435Z,22.57
2022-07-29T12:58:33.090Z,22.40
2022-07-29T13:01:21.225Z,22.10
2022-07-29T13:03:57.405Z,22.03
2022-07-29T13:06:32.736Z,21.86
2022-07-29T13:09:03.043Z,22.10
2022-07-29T13:11:34.650Z,22.00
2022-07-29T13:14:07.218Z,22.08
2022-07-29T13:16:36.071Z,21.83
2022-07-29T13:19:18.548Z,22.11
2022-07-29T13:21:48.652Z,22.16
2022-07-29T13:24:50.336Z,22.22
2022-07-29T13:27:19.598Z,22.33
2022-07-29T13:29:49.855Z,22.36
2022-07-29T13:32:27.948Z,22.35
2022-07-29T13:35:05.457Z,22.18
2022-07-29T13:37:39.598Z,22.52
2022-07-29T13:40:09.044Z,22.58
2022-07-29T13:42:38.036Z,22.57
2022-07-29T13:45:08.113Z,22.57
2022-07-29T13:47:36.879Z,22.53
2022-07-29T13:50:11.633Z,22.52
2022-07-29T13:52:41.811Z,22.56
2022-07-29T13:55:12.581Z,22.61
2022-07-29T13:58:06.459Z,22.82
2022-07-29T14:00:35.763Z,22.92
2022-07-29T14:03:04.457Z,23.08
2022-07-29T14:05:33.101Z,23.19
2022-07-29T14:08:03.278Z,23.11
2022-07-29T14:10:34.108Z,23.09
2022-07-29T14:13:03.955Z,22.90
2022-07-29T14:15:33.634Z,22.81
2022-07-29T14:18:08.170Z,22.80
2022-07-29T14:20:38.550Z,22.84
2022-07-29T14:23:08.748Z,22.92
2022-07-29T14:25:40.978Z,23.04
2022-07-29T14:28:11.864Z,23.11
2022-07-29T14:31:08.535Z,23.07
2022-07-29T14:33:37.790Z,22.75
2022-07-29T14:36:06.901Z,22.70
2022-07-29T14:38:38.448Z,22.77
2022-07-29T14:41:07.126Z,22.91
2022-07-29T14:43:37.100Z,22.65
2022-07-29T14:46:08.503Z,22.99
2022-07-29T14:48:37.491Z,22.93
2022-07-29T14:51:06.437Z,23.01
2022-07-29T14:53:40.349Z,22.97
2022-07-29T14:56:35.042Z,22.66
2022-07-29T14:58:57.899Z,22.80
2022-07-29T15:01:26.923Z,22.40
2022-07-29T15:03:59.561Z,22.46
2022-07-29T15:06:28.845Z,22.39
2022-07-29T15:08:59.069Z,22.43
2022-07-29T15:11:27.791Z,22.18
2022-07-29T15:13:56.518Z,22.05
2022-07-29T15:16:25.269Z,22.29
2022-07-29T15:18:53.964Z,22.20
2022-07-29T15:21:22.900Z,21.97
2022-07-29T15:23:51.620Z,21.96
2022-07-29T15:26:21.743Z,21.91
2022-07-29T15:28:50.941Z,21.51
2022-07-29T15:31:20.019Z,21.74
2022-07-29T15:33:48.824Z,21.35
2022-07-29T15:36:42.141Z,20.96
2022-07-29T15:39:10.778Z,20.30
2022-07-29T15:41:40.952Z,20.45
2022-07-29T15:44:41.313Z,20.35
2022-07-29T15:47:11.446Z,20.03
2022-07-29T15:49:47.190Z,19.59
2022-07-29T15:52:26.225Z,20.38
2022-07-29T15:54:56.347Z,20.02
2022-07-29T15:57:27.796Z,20.05
2022-07-29T15:59:57.381Z,20.03
2022-07-29T16:02:27.100Z,19.75
2022-07-29T16:04:55.751Z,19.74
2022-07-29T16:07:24.469Z,19.78
2022-07-29T16:10:01.265Z,19.73
2022-07-29T16:12:34.938Z,19.62
2022-07-29T16:15:09.489Z,19.59
2022-07-29T16:17:40.786Z,19.56
2022-07-29T16:20:13.780Z,19.48
2022-07-29T16:22:48.256Z,19.36
2022-07-29T16:25:18.488Z,19.36
2022-07-29T16:27:48.787Z,19.28
2022-07-29T16:30:48.453Z,19.25
2022-07-29T16:36:10.733Z,19.15
2022-07-29T16:38:47.104Z,18.95
2022-07-29T16:41:16.482Z,19.06
2022-07-29T16:44:12.235Z,19.12
2022-07-29T16:46:41.513Z,19.11
2022-07-29T16:49:40.698Z,19.05
2022-07-29T16:52:09.353Z,19.06
2022-07-29T16:54:38.790Z,19.09
2022-07-29T16:57:32.717Z,19.12
2022-07-29T17:00:09.103Z,19.07
2022-07-29T17:02:39.822Z,19.11
2022-07-29T17:05:09.571Z,19.07
2022-07-29T17:07:39.896Z,19.06
2022-07-29T17:10:11.138Z,18.96
2022-07-29T17:12:41.314Z,18.92
2022-07-29T17:15:19.327Z,18.86
2022-07-29T17:17:56.530Z,18.79
2022-07-29T17:20:27.518Z,18.70
2022-07-29T17:22:56.409Z,18.59
2022-07-29T17:25:31.249Z,18.50
2022-07-29T17:28:01.381Z,18.42
2022-07-29T17:30:33.924Z,18.35
2022-07-29T17:33:04.537Z,18.29
2022-07-29T17:35:50.586Z,18.14
2022-07-29T17:38:19.338Z,18.11
2022-07-29T17:40:51.358Z,18.02
2022-07-29T17:43:20.111Z,18.00
2022-07-29T17:45:50.973Z,17.97
2022-07-29T17:48:20.784Z,17.76
2022-07-29T17:50:50.323Z,17.86
2022-07-29T17:53:20.996Z,17.70
2022-07-29T17:55:49.965Z,17.75
2022-07-29T17:58:19.567Z,17.52
2022-07-29T18:00:49.947Z,17.50
2022-07-29T18:03:18.896Z,17.58
2022-07-29T18:05:47.619Z,17.55
2022-07-29T18:08:21.315Z,17.54
2022-07-29T18:10:49.974Z,17.45
2022-07-29T18:13:19.109Z,17.52
2022-07-29T18:15:50.568Z,17.45
2022-07-29T18:18:19.591Z,17.48
2022-07-29T18:24:07.898Z,17.48
2022-07-29T18:26:37.240Z,17.08
2022-07-29T18:29:06.123Z,17.37
2022-07-29T18:32:06.829Z,17.35
2022-07-29T18:35:05.417Z,17.33
2022-07-29T18:38:01.217Z,17.07
2022-07-29T18:40:29.660Z,17.25
2022-07-29T18:43:02.489Z,17.11
2022-07-29T18:45:31.491Z,16.98
2022-07-29T18:48:03.171Z,17.12
2022-07-29T18:50:32.082Z,17.10
2022-07-29T18:53:02.241Z,17.10
2022-07-29T18:55:32.770Z,16.91
2022-07-29T18:58:01.379Z,17.04
2022-07-29T19:00:59.397Z,16.98
2022-07-29T19:03:31.352Z,16.96
2022-07-29T19:06:00.037Z,16.74
2022-07-29T19:08:28.763Z,16.72
2022-07-29T19:10:59.455Z,16.90
2022-07-29T19:13:28.172Z,16.72
2022-07-29T19:15:56.986Z,16.88
2022-07-29T19:18:25.613Z,16.87
2022-07-29T19:20:56.219Z,16.66
2022-07-29T19:23:25.665Z,16.78
2022-07-29T19:25:54.486Z,16.59
2022-07-29T19:28:23.393Z,16.52
2022-07-29T19:30:52.162Z,16.65
2022-07-29T19:33:21.125Z,16.60
2022-07-29T19:35:54.549Z,16.37
2022-07-29T19:38:26.792Z,16.56
2022-07-29T19:40:56.623Z,16.55
2022-07-29T19:43:51.798Z,16.51
2022-07-29T19:46:14.615Z,16.37
2022-07-29T19:48:43.269Z,16.19
2022-07-29T19:51:11.902Z,16.26
2022-07-29T19:53:48.305Z,16.19
2022-07-29T19:56:16.898Z,16.00
2022-07-29T19:58:48.528Z,16.17
2022-07-29T20:01:21.169Z,15.87
2022-07-29T20:03:49.820Z,16.17
2022-07-29T20:06:24.757Z,16.26
2022-07-29T20:08:58.596Z,15.87
2022-07-29T20:11:30.592Z,16.25
2022-07-29T20:13:59.209Z,16.05
2022-07-29T20:16:30.453Z,16.17
2022-07-29T20:18:59.141Z,15.98
2022-07-29T20:21:28.893Z,16.08
2022-07-29T20:24:00.596Z,16.22
2022-07-29T20:26:36.717Z,16.14
2022-07-29T20:29:05.965Z,15.84
2022-07-29T20:31:34.738Z,16.17
2022-07-29T20:34:04.403Z,16.02
2022-07-29T20:36:37.545Z,15.99
2022-07-29T20:39:07.689Z,15.95
2022-07-29T20:41:36.312Z,16.06
2022-07-29T20:44:05.643Z,16.08
2022-07-29T20:46:34.619Z,16.04
2022-07-29T20:49:05.192Z,16.03
2022-07-29T20:51:43.284Z,15.75
2022-07-29T20:54:15.847Z,15.80
2022-07-29T20:56:45.165Z,15.50
2022-07-29T20:59:45.804Z,15.66
2022-07-29T21:02:16.299Z,15.56
2022-07-29T21:04:53.681Z,15.69
2022-07-29T21:07:22.320Z,15.69
2022-07-29T21:09:59.797Z,15.72
2022-07-29T21:12:30.760Z,15.69
2022-07-29T21:14:59.409Z,15.68
2022-07-29T21:17:28.068Z,15.65
2022-07-29T21:19:56.728Z,15.53
2022-07-29T21:22:50.825Z,15.60
2022-07-29T21:25:25.210Z,15.56
2022-07-29T21:28:11.297Z,15.42
2022-07-29T21:30:42.386Z,15.48
2022-07-29T21:33:11.087Z,15.44
2022-07-29T21:36:15.003Z,15.42
2022-07-29T21:38:31.849Z,15.36
2022-07-29T21:41:02.607Z,15.27
2022-07-29T21:43:31.346Z,15.24
2022-07-29T21:46:01.083Z,15.16
2022-07-29T21:48:30.236Z,14.95
2022-07-29T21:51:04.417Z,15.10
2022-07-29T21:53:33.223Z,15.06
2022-07-29T21:56:03.763Z,15.02
2022-07-29T21:58:38.405Z,14.99
2022-07-29T22:01:12.035Z,14.87
2022-07-29T22:03:40.747Z,14.87
2022-07-29T22:06:16.676Z,14.67
2022-07-29T22:08:48.140Z,14.73
2022-07-29T22:11:22.094Z,14.64
2022-07-29T22:13:51.572Z,14.59
2022-07-29T22:16:21.646Z,14.42
2022-07-29T22:18:50.199Z,14.55
2022-07-29T22:21:43.777Z,14.50
2022-07-29T22:24:13.023Z,14.31
2022-07-29T22:26:43.909Z,14.42
2022-07-29T22:30:02.233Z,14.33
2022-07-29T22:32:32.861Z,14.30
2022-07-29T22:35:02.356Z,14.25
2022-07-29T22:37:32.637Z,14.17
2022-07-29T22:40:03.308Z,14.07
2022-07-29T22:42:33.836Z,14.10
2022-07-29T22:45:02.560Z,13.89
2022-07-29T22:47:39.782Z,13.97
2022-07-29T22:53:12.909Z,13.82
2022-07-29T22:55:41.577Z,13.88
2022-07-29T22:58:13.283Z,13.82
2022-07-29T23:00:44.593Z,13.75
2022-07-29T23:03:14.559Z,13.58
2022-07-29T23:05:43.235Z,13.62
2022-07-29T23:08:11.849Z,13.56
2022-07-29T23:10:44.808Z,13.56
2022-07-29T23:13:17.178Z,13.49
2022-07-29T23:15:47.978Z,13.40
2022-07-29T23:18:21.022Z,13.53
2022-07-29T23:20:50.715Z,13.50
2022-07-29T23:23:19.415Z,13.47
2022-07-29T23:25:51.099Z,13.34
2022-07-29T23:28:22.219Z,13.20
2022-07-29T23:31:20.659Z,13.41
2022-07-29T23:33:49.445Z,13.23
2022-07-29T23:36:20.195Z,13.37
2022-07-29T23:38:48.950Z,13.34
2022-07-29T23:41:21.588Z,13.27
2022-07-29T23:43:52.158Z,13.09
2022-07-29T23:46:23.940Z,13.04
2022-07-29T23:48:53.006Z,13.18
2022-07-29T23:51:21.610Z,13.18
2022-07-29T23:53:54.001Z,13.10
2022-07-29T23:56:24.715Z,12.84
2022-07-29T23:58:54.694Z,12.83
